createdAt,value
2019-01-23T00:01:15.035Z,41.27
2019-01-23T00:04:30.886Z,41.63
2019-01-23T00:11:25.908Z,41.30
2019-01-23T00:14:41.778Z,45.23
2019-01-23T00:17:57.873Z,47.17
2019-01-23T00:21:13.138Z,37.87
2019-01-23T00:24:29.136Z,43.40
2019-01-23T00:27:45.253Z,49.10
2019-01-23T00:31:00.963Z,44.40
2019-01-23T00:34:17.048Z,43.70
2019-01-23T00:41:15.753Z,41.87
2019-01-23T00:44:31.338Z,40.53
2019-01-23T00:47:46.924Z,43.90
2019-01-23T00:51:03.084Z,42.60
2019-01-23T00:54:38.293Z,48.97
2019-01-23T00:57:53.866Z,40.43
2019-01-23T01:01:09.829Z,44.80
2019-01-23T01:04:45.100Z,36.83
2019-01-23T01:08:19.790Z,37.80
2019-01-23T01:11:35.849Z,46.30
2019-01-23T01:14:51.610Z,42.67
2019-01-23T01:18:07.705Z,39.20
2019-01-23T01:21:23.507Z,43.90
2019-01-23T01:24:39.473Z,39.43
2019-01-23T01:31:48.947Z,41.97
2019-01-23T01:35:05.008Z,45.60
2019-01-23T01:38:39.969Z,39.27
2019-01-23T01:41:55.386Z,38.43
2019-01-23T01:45:11.471Z,41.07
2019-01-23T01:48:27.448Z,46.23
2019-01-23T01:51:43.147Z,43.27
2019-01-23T01:54:59.167Z,41.47
2019-01-23T01:58:14.752Z,39.67
2019-01-23T02:01:30.506Z,42.90
2019-01-23T02:04:46.285Z,44.03
2019-01-23T02:08:01.892Z,39.87
2019-01-23T02:18:39.923Z,35.23
2019-01-23T02:21:55.642Z,43.33
2019-01-23T02:25:11.629Z,41.90
2019-01-23T02:28:27.782Z,39.67
2019-01-23T02:31:43.410Z,40.20
2019-01-23T02:34:59.556Z,36.63
2019-01-23T02:38:15.338Z,38.57
2019-01-23T02:41:30.567Z,37.80
2019-01-23T02:45:05.946Z,39.87
2019-01-23T02:48:21.263Z,41.47
2019-01-23T02:51:38.550Z,36.67
2019-01-23T02:54:54.578Z,36.57
2019-01-23T02:58:10.137Z,42.07
2019-01-23T03:01:25.819Z,39.03
2019-01-23T03:04:41.341Z,35.10
2019-01-23T03:07:57.148Z,34.87
2019-01-23T03:11:12.352Z,39.47
2019-01-23T03:14:28.413Z,34.73
2019-01-23T03:17:44.410Z,33.10
2019-01-23T03:21:00.558Z,38.20
2019-01-23T03:31:59.650Z,40.47
2019-01-23T03:35:15.233Z,34.57
2019-01-23T03:42:14.049Z,40.60
2019-01-23T03:45:29.995Z,34.03
2019-01-23T03:52:55.553Z,35.80
2019-01-23T04:03:45.115Z,37.30
2019-01-23T04:10:53.305Z,34.93
2019-01-23T04:14:08.583Z,33.83
2019-01-23T04:17:23.853Z,33.43
2019-01-23T04:20:39.969Z,36.63
2019-01-23T04:23:56.082Z,33.53
2019-01-23T04:27:11.357Z,35.63
2019-01-23T04:30:26.615Z,33.17
2019-01-23T04:33:42.501Z,36.37
2019-01-23T04:36:58.333Z,34.50
2019-01-23T04:40:13.622Z,39.43
2019-01-23T04:43:29.805Z,33.30
2019-01-23T04:46:45.878Z,35.90
2019-01-23T04:53:46.491Z,35.57
2019-01-23T04:57:02.363Z,31.93
2019-01-23T05:00:20.177Z,34.03
2019-01-23T05:03:36.266Z,32.33
2019-01-23T05:06:52.089Z,33.03
2019-01-23T05:10:07.962Z,32.20
2019-01-23T05:17:03.069Z,33.50
2019-01-23T05:20:19.125Z,40.23
2019-01-23T05:23:54.294Z,35.53
2019-01-23T05:27:09.699Z,33.17
2019-01-23T05:30:24.968Z,37.77
2019-01-23T05:33:40.752Z,33.10
2019-01-23T05:36:56.732Z,34.90
2019-01-23T05:40:12.581Z,34.53
2019-01-23T05:43:28.518Z,36.43
2019-01-23T05:46:44.218Z,32.17
2019-01-23T05:50:00.226Z,38.17
2019-01-23T05:53:16.192Z,36.50
2019-01-23T05:56:31.401Z,37.43
2019-01-23T05:59:47.362Z,33.43
2019-01-23T06:03:03.493Z,32.67
2019-01-23T06:06:38.826Z,35.70
2019-01-23T06:09:54.124Z,35.00
2019-01-23T06:13:09.903Z,38.50
2019-01-23T06:24:17.401Z,33.90
2019-01-23T06:27:52.621Z,37.57
2019-01-23T06:31:08.337Z,38.93
2019-01-23T06:34:43.475Z,37.73
2019-01-23T06:41:42.451Z,35.63
2019-01-23T06:44:58.193Z,37.80
2019-01-23T06:48:14.306Z,35.87
2019-01-23T06:51:30.641Z,33.37
2019-01-23T06:54:46.310Z,33.93
2019-01-23T06:58:02.249Z,38.43
2019-01-23T07:01:18.137Z,38.97
2019-01-23T07:04:33.825Z,32.63
2019-01-23T07:07:50.008Z,34.83
2019-01-23T07:14:22.755Z,33.97
2019-01-23T07:17:57.578Z,33.00
2019-01-23T07:21:12.857Z,35.83
2019-01-23T07:24:28.453Z,40.67
2019-01-23T07:28:03.780Z,35.00
2019-01-23T07:31:18.981Z,36.93
2019-01-23T07:34:53.877Z,37.83
2019-01-23T07:38:09.425Z,34.30
2019-01-23T07:41:24.985Z,36.57
2019-01-23T07:44:40.814Z,34.93
2019-01-23T07:47:56.886Z,34.97
2019-01-23T07:51:12.577Z,35.70
2019-01-23T07:54:28.160Z,40.33
2019-01-23T07:57:43.933Z,37.40
2019-01-23T08:08:19.869Z,35.23
2019-01-23T08:11:35.563Z,36.30
2019-01-23T08:15:10.693Z,40.00
2019-01-23T08:18:25.937Z,38.23
2019-01-23T08:21:41.978Z,38.30
2019-01-23T08:24:57.897Z,38.73
2019-01-23T08:28:13.913Z,37.80
2019-01-23T08:31:29.898Z,46.00
2019-01-23T08:34:45.803Z,42.17
2019-01-23T08:38:01.073Z,38.17
2019-01-23T08:41:17.096Z,41.57
2019-01-23T08:44:33.033Z,38.93
2019-01-23T08:47:49.056Z,38.70
2019-01-23T08:54:57.173Z,32.77
2019-01-23T08:58:13.121Z,39.80
2019-01-23T09:01:28.422Z,41.03
2019-01-23T09:04:44.225Z,43.57
2019-01-23T09:08:00.224Z,41.60
2019-01-23T09:11:16.337Z,36.93
2019-01-23T09:14:32.045Z,40.53
2019-01-23T09:18:07.161Z,41.63
2019-01-23T09:21:23.413Z,40.27
2019-01-23T09:24:58.474Z,41.70
2019-01-23T09:28:13.799Z,37.30
2019-01-23T09:31:29.665Z,38.67
2019-01-23T09:34:45.923Z,41.30
2019-01-23T09:38:01.609Z,33.17
2019-01-23T09:41:17.814Z,42.57
2019-01-23T09:44:33.381Z,35.90
2019-01-23T09:48:08.439Z,33.03
2019-01-23T09:51:23.698Z,33.83
2019-01-23T09:54:39.597Z,39.17
2019-01-23T09:57:55.633Z,36.33
2019-01-23T10:01:30.719Z,34.97
2019-01-23T10:05:05.606Z,38.83
2019-01-23T10:08:21.214Z,37.93
2019-01-23T10:11:56.322Z,31.70
2019-01-23T10:15:12.027Z,34.93
2019-01-23T10:25:47.491Z,33.13
2019-01-23T10:29:03.126Z,41.50
2019-01-23T10:32:18.526Z,36.17
2019-01-23T10:35:34.669Z,40.20
2019-01-23T10:38:50.059Z,37.33
2019-01-23T10:42:05.849Z,35.33
2019-01-23T10:45:42.368Z,37.17
2019-01-23T10:48:57.772Z,36.87
2019-01-23T10:52:32.720Z,32.50
2019-01-23T10:59:27.490Z,32.87
2019-01-23T11:02:43.139Z,30.40
2019-01-23T11:05:59.113Z,34.97
2019-01-23T11:13:27.573Z,31.10
2019-01-23T11:17:02.122Z,28.93
2019-01-23T11:20:36.797Z,30.80
2019-01-23T11:34:33.629Z,31.57
2019-01-23T11:37:49.600Z,35.73
2019-01-23T11:44:22.745Z,35.93
2019-01-23T11:47:37.946Z,36.00
2019-01-23T11:54:47.489Z,32.60
2019-01-23T11:58:03.505Z,37.47
2019-01-23T12:15:40.827Z,37.67
2019-01-23T12:19:12.150Z,40.77
2019-01-23T12:22:46.655Z,39.43
2019-01-23T12:26:02.019Z,42.67
2019-01-23T12:29:36.514Z,36.10
2019-01-23T12:32:51.925Z,39.70
2019-01-23T12:36:11.017Z,35.00
2019-01-23T12:39:26.937Z,39.57
2019-01-23T12:42:46.071Z,42.30
2019-01-23T12:53:11.120Z,38.47
2019-01-23T12:56:27.164Z,38.00
2019-01-23T13:03:33.846Z,38.83
2019-01-23T13:10:42.351Z,35.77
2019-01-23T13:13:58.859Z,39.73
2019-01-23T13:21:07.001Z,39.20
2019-01-23T13:24:22.233Z,41.33
2019-01-23T13:27:57.563Z,40.60
2019-01-23T13:31:13.163Z,39.07
2019-01-23T13:34:28.922Z,40.10
2019-01-23T13:45:21.927Z,41.50
2019-01-23T13:52:31.503Z,40.10
2019-01-23T14:02:48.257Z,34.53
2019-01-23T14:10:00.645Z,42.37
2019-01-23T14:17:16.182Z,43.83
2019-01-23T14:20:31.782Z,40.07
2019-01-23T14:23:47.600Z,43.93
2019-01-23T14:27:22.810Z,42.90
2019-01-23T14:34:05.965Z,43.00
2019-01-23T14:37:28.733Z,45.07
2019-01-23T14:40:51.535Z,42.30
2019-01-23T14:44:33.652Z,45.27
2019-01-23T14:48:15.752Z,42.17
2019-01-23T14:51:51.368Z,41.43
2019-01-23T14:55:26.561Z,42.27
2019-01-23T14:58:42.024Z,40.40
2019-01-23T15:05:36.922Z,40.37
2019-01-23T15:08:55.361Z,43.67
2019-01-23T15:12:30.630Z,43.97
2019-01-23T15:15:46.813Z,44.47
2019-01-23T15:22:23.821Z,45.10
2019-01-23T15:25:39.654Z,47.60
2019-01-23T15:29:14.829Z,42.93
2019-01-23T15:32:49.787Z,46.23
2019-01-23T15:36:05.125Z,47.67
2019-01-23T15:39:18.901Z,40.43
2019-01-23T15:46:46.561Z,44.07
2019-01-23T15:50:05.335Z,44.90
2019-01-23T15:53:40.021Z,54.13
2019-01-23T15:56:55.381Z,50.97
2019-01-23T16:00:10.691Z,43.97
2019-01-23T16:07:05.375Z,46.67
2019-01-23T16:10:21.385Z,44.33
2019-01-23T16:13:42.168Z,48.17
2019-01-23T16:17:14.404Z,47.50
2019-01-23T16:20:29.962Z,43.77
2019-01-23T16:24:05.135Z,49.43
2019-01-23T16:27:20.577Z,47.50
2019-01-23T16:30:36.407Z,48.17
2019-01-23T16:33:52.540Z,47.90
2019-01-23T16:40:47.518Z,49.93
2019-01-23T16:44:03.571Z,51.30
2019-01-23T16:47:19.494Z,58.57
2019-01-23T16:50:54.674Z,66.10
2019-01-23T16:54:09.973Z,60.43
2019-01-23T16:57:25.751Z,68.17
2019-01-23T17:00:41.621Z,68.43
2019-01-23T17:03:56.867Z,68.87
2019-01-23T17:07:13.018Z,71.37
2019-01-23T17:10:28.955Z,70.37
2019-01-23T17:13:44.811Z,71.43
2019-01-23T17:17:19.394Z,71.13
2019-01-23T17:28:29.838Z,71.00
2019-01-23T17:31:45.069Z,74.80
2019-01-23T17:35:01.243Z,72.27
2019-01-23T17:38:17.420Z,75.87
2019-01-23T17:41:33.309Z,69.90
2019-01-23T17:45:08.477Z,74.97
2019-01-23T17:48:45.317Z,76.43
2019-01-23T17:52:19.930Z,76.97
2019-01-23T17:55:35.557Z,76.63
2019-01-23T18:02:52.888Z,72.50
2019-01-23T18:06:08.924Z,75.03
2019-01-23T18:09:44.026Z,78.40
2019-01-23T18:12:59.223Z,83.03
2019-01-23T18:16:33.684Z,77.20
2019-01-23T18:19:49.422Z,72.10
2019-01-23T18:23:04.802Z,72.63
2019-01-23T18:26:20.618Z,64.60
2019-01-23T18:29:36.779Z,66.57
2019-01-23T18:32:52.677Z,69.17
2019-01-23T18:36:08.857Z,75.70
2019-01-23T18:43:05.763Z,68.90
2019-01-23T18:46:20.943Z,69.87
2019-01-23T18:49:36.905Z,66.77
2019-01-23T18:52:53.011Z,73.43
2019-01-23T18:56:09.230Z,73.47
2019-01-23T18:59:44.564Z,71.60
2019-01-23T19:03:06.683Z,72.23
2019-01-23T19:06:36.490Z,65.07
2019-01-23T19:09:51.945Z,65.63
2019-01-23T19:16:47.579Z,60.70
2019-01-23T19:20:03.611Z,65.80
2019-01-23T19:23:19.191Z,67.33
2019-01-23T19:26:34.877Z,70.83
2019-01-23T19:30:10.170Z,65.87
2019-01-23T19:33:25.630Z,63.80
2019-01-23T19:36:41.410Z,67.93
2019-01-23T19:39:56.654Z,74.13
2019-01-23T19:43:11.881Z,71.63
2019-01-23T19:46:27.854Z,65.80
2019-01-23T19:53:56.624Z,75.03
2019-01-23T20:00:49.529Z,71.17
2019-01-23T20:04:24.770Z,68.47
2019-01-23T20:07:40.619Z,80.83
2019-01-23T20:10:56.800Z,76.17
2019-01-23T20:14:12.765Z,66.03
2019-01-23T20:17:48.125Z,70.97
2019-01-23T20:21:22.856Z,77.77
2019-01-23T20:24:38.127Z,82.67
2019-01-23T20:28:13.351Z,81.73
2019-01-23T20:31:28.606Z,88.77
2019-01-23T20:34:44.929Z,79.00
2019-01-23T20:37:48.495Z,90.53
2019-01-23T20:41:11.345Z,79.27
2019-01-23T20:44:34.128Z,94.00
2019-01-23T20:47:56.905Z,89.93
2019-01-23T20:51:19.707Z,88.87
2019-01-23T20:54:34.941Z,81.77
2019-01-23T20:57:50.870Z,75.97
2019-01-23T21:01:06.548Z,71.57
2019-01-23T21:04:22.177Z,96.90
2019-01-23T21:15:04.549Z,79.27
2019-01-23T21:18:39.018Z,85.00
2019-01-23T21:25:33.513Z,77.50
2019-01-23T21:28:48.717Z,84.30
2019-01-23T21:32:23.284Z,78.97
2019-01-23T21:35:38.723Z,78.90
2019-01-23T21:38:54.705Z,85.53
2019-01-23T21:48:48.865Z,84.53
2019-01-23T21:56:04.435Z,81.33
2019-01-23T21:59:19.687Z,100.87
2019-01-23T22:02:33.466Z,101.60
2019-01-23T22:05:56.233Z,87.23
2019-01-23T22:09:19.045Z,88.10
2019-01-23T22:12:41.821Z,91.57
2019-01-23T22:16:23.947Z,102.57
2019-01-23T22:19:46.703Z,94.00
2019-01-23T22:23:28.813Z,93.93
2019-01-23T22:26:51.577Z,81.50
2019-01-23T22:30:33.696Z,87.23
2019-01-23T22:33:56.626Z,98.43
2019-01-23T22:37:21.013Z,98.27
2019-01-23T22:41:03.109Z,86.73
2019-01-23T22:44:26.004Z,88.03
2019-01-23T22:51:11.100Z,93.73
2019-01-23T22:54:26.506Z,85.30
2019-01-23T22:58:01.782Z,97.50
2019-01-23T23:01:17.239Z,99.50
2019-01-23T23:04:32.779Z,96.63
2019-01-23T23:08:07.749Z,94.77
2019-01-23T23:11:23.115Z,96.10
2019-01-23T23:14:39.185Z,91.70
2019-01-23T23:17:55.121Z,101.43
2019-01-23T23:21:11.205Z,88.17
2019-01-23T23:24:27.365Z,89.60
2019-01-23T23:28:02.381Z,87.67
2019-01-23T23:31:17.970Z,87.70
2019-01-23T23:38:26.009Z,88.93
2019-01-23T23:41:41.818Z,92.60
2019-01-23T23:44:57.137Z,94.17
2019-01-23T23:48:13.302Z,97.27
2019-01-23T23:51:28.998Z,99.47
2019-01-23T23:54:44.258Z,96.23
2019-01-23T23:58:00.341Z,85.33
